sensor_id;sensor_type;location;lat;lon;timestamp;P1;durP1;ratioP1;P2;durP2;ratioP2
40320;SDS011;26027;51.454;6.628;2022-08-21T00:01:19;1.70;;;1.70;;
40320;SDS011;26027;51.454;6.628;2022-08-21T00:03:46;1.73;;;1.73;;
40320;SDS011;26027;51.454;6.628;2022-08-21T00:06:12;1.60;;;1.60;;
40320;SDS011;26027;51.454;6.628;2022-08-21T00:08:38;1.50;;;1.50;;
40320;SDS011;26027;51.454;6.628;2022-08-21T00:11:04;1.98;;;1.88;;
40320;SDS011;26027;51.454;6.628;2022-08-21T00:13:31;1.50;;;1.50;;
40320;SDS011;26027;51.454;6.628;2022-08-21T00:15:58;1.70;;;1.60;;
40320;SDS011;26027;51.454;6.628;2022-08-21T00:18:24;1.45;;;1.45;;
40320;SDS011;26027;51.454;6.628;2022-08-21T00:20:51;1.92;;;1.83;;
40320;SDS011;26027;51.454;6.628;2022-08-21T00:23:17;1.77;;;1.77;;
40320;SDS011;26027;51.454;6.628;2022-08-21T00:25:43;1.77;;;1.77;;
40320;SDS011;26027;51.454;6.628;2022-08-21T00:28:10;1.70;;;1.70;;
40320;SDS011;26027;51.454;6.628;2022-08-21T00:30:36;1.60;;;1.50;;
40320;SDS011;26027;51.454;6.628;2022-08-21T00:33:02;1.60;;;1.60;;
40320;SDS011;26027;51.454;6.628;2022-08-21T00:35:33;1.60;;;1.60;;
40320;SDS011;26027;51.454;6.628;2022-08-21T00:37:59;1.70;;;1.70;;
40320;SDS011;26027;51.454;6.628;2022-08-21T00:40:30;1.55;;;1.55;;
40320;SDS011;26027;51.454;6.628;2022-08-21T00:42:57;1.80;;;1.73;;
40320;SDS011;26027;51.454;6.628;2022-08-21T00:45:23;1.58;;;1.58;;
40320;SDS011;26027;51.454;6.628;2022-08-21T00:47:51;1.70;;;1.70;;
40320;SDS011;26027;51.454;6.628;2022-08-21T00:50:18;1.60;;;1.60;;
40320;SDS011;26027;51.454;6.628;2022-08-21T00:52:45;1.70;;;1.70;;
40320;SDS011;26027;51.454;6.628;2022-08-21T00:55:11;1.48;;;1.48;;
40320;SDS011;26027;51.454;6.628;2022-08-21T00:57:39;1.50;;;1.50;;
40320;SDS011;26027;51.454;6.628;2022-08-21T01:00:07;1.60;;;1.60;;
40320;SDS011;26027;51.454;6.628;2022-08-21T01:02:34;1.63;;;1.52;;
40320;SDS011;26027;51.454;6.628;2022-08-21T01:05:00;1.50;;;1.40;;
40320;SDS011;26027;51.454;6.628;2022-08-21T01:07:26;1.60;;;1.60;;
40320;SDS011;26027;51.454;6.628;2022-08-21T01:09:52;1.45;;;1.45;;
40320;SDS011;26027;51.454;6.628;2022-08-21T01:12:18;1.75;;;1.65;;
40320;SDS011;26027;51.454;6.628;2022-08-21T01:14:44;1.60;;;1.60;;
40320;SDS011;26027;51.454;6.628;2022-08-21T01:17:13;1.70;;;1.60;;
40320;SDS011;26027;51.454;6.628;2022-08-21T01:19:40;1.73;;;1.70;;
40320;SDS011;26027;51.454;6.628;2022-08-21T01:22:07;1.70;;;1.70;;
40320;SDS011;26027;51.454;6.628;2022-08-21T01:24:33;1.60;;;1.60;;
40320;SDS011;26027;51.454;6.628;2022-08-21T01:26:59;1.40;;;1.40;;
40320;SDS011;26027;51.454;6.628;2022-08-21T01:31:56;1.45;;;1.45;;
40320;SDS011;26027;51.454;6.628;2022-08-21T01:34:22;1.60;;;1.60;;
40320;SDS011;26027;51.454;6.628;2022-08-21T01:36:48;1.40;;;1.40;;
40320;SDS011;26027;51.454;6.628;2022-08-21T01:39:14;1.45;;;1.45;;
40320;SDS011;26027;51.454;6.628;2022-08-21T01:41:40;1.50;;;1.50;;
40320;SDS011;26027;51.454;6.628;2022-08-21T01:44:06;1.70;;;1.70;;
40320;SDS011;26027;51.454;6.628;2022-08-21T01:46:33;1.40;;;1.40;;
40320;SDS011;26027;51.454;6.628;2022-08-21T01:48:59;1.50;;;1.50;;
40320;SDS011;26027;51.454;6.628;2022-08-21T01:51:25;1.50;;;1.50;;
40320;SDS011;26027;51.454;6.628;2022-08-21T01:53:51;1.40;;;1.40;;
40320;SDS011;26027;51.454;6.628;2022-08-21T01:56:17;1.50;;;1.50;;
40320;SDS011;26027;51.454;6.628;2022-08-21T01:58:43;1.50;;;1.50;;
40320;SDS011;26027;51.454;6.628;2022-08-21T02:01:10;1.50;;;1.50;;
40320;SDS011;26027;51.454;6.628;2022-08-21T02:03:36;1.50;;;1.50;;
40320;SDS011;26027;51.454;6.628;2022-08-21T02:06:03;1.35;;;1.35;;
40320;SDS011;26027;51.454;6.628;2022-08-21T02:08:30;1.40;;;1.40;;
40320;SDS011;26027;51.454;6.628;2022-08-21T02:10:56;1.63;;;1.63;;
40320;SDS011;26027;51.454;6.628;2022-08-21T02:13:22;1.50;;;1.50;;
40320;SDS011;26027;51.454;6.628;2022-08-21T02:15:48;1.40;;;1.40;;
40320;SDS011;26027;51.454;6.628;2022-08-21T02:18:14;1.50;;;1.50;;
40320;SDS011;26027;51.454;6.628;2022-08-21T02:20:41;1.30;;;1.30;;
40320;SDS011;26027;51.454;6.628;2022-08-21T02:23:09;1.48;;;1.48;;
40320;SDS011;26027;51.454;6.628;2022-08-21T02:25:35;1.67;;;1.58;;
40320;SDS011;26027;51.454;6.628;2022-08-21T02:28:03;1.42;;;1.42;;
40320;SDS011;26027;51.454;6.628;2022-08-21T02:30:30;1.60;;;1.60;;
40320;SDS011;26027;51.454;6.628;2022-08-21T02:32:56;1.63;;;1.63;;
40320;SDS011;26027;51.454;6.628;2022-08-21T02:35:23;1.60;;;1.60;;
40320;SDS011;26027;51.454;6.628;2022-08-21T02:37:50;1.60;;;1.60;;
40320;SDS011;26027;51.454;6.628;2022-08-21T02:40:17;1.60;;;1.60;;
40320;SDS011;26027;51.454;6.628;2022-08-21T02:42:44;1.63;;;1.63;;
40320;SDS011;26027;51.454;6.628;2022-08-21T02:45:11;1.83;;;1.75;;
40320;SDS011;26027;51.454;6.628;2022-08-21T02:47:38;1.58;;;1.58;;
40320;SDS011;26027;51.454;6.628;2022-08-21T02:50:05;1.40;;;1.40;;
40320;SDS011;26027;51.454;6.628;2022-08-21T02:52:31;1.60;;;1.58;;
40320;SDS011;26027;51.454;6.628;2022-08-21T02:54:59;1.50;;;1.50;;
40320;SDS011;26027;51.454;6.628;2022-08-21T02:57:25;1.60;;;1.60;;
40320;SDS011;26027;51.454;6.628;2022-08-21T02:59:51;1.50;;;1.50;;
40320;SDS011;26027;51.454;6.628;2022-08-21T03:02:17;1.50;;;1.50;;
40320;SDS011;26027;51.454;6.628;2022-08-21T03:04:43;1.55;;;1.55;;
40320;SDS011;26027;51.454;6.628;2022-08-21T03:07:09;1.67;;;1.67;;
40320;SDS011;26027;51.454;6.628;2022-08-21T03:09:35;1.50;;;1.50;;
40320;SDS011;26027;51.454;6.628;2022-08-21T03:12:02;1.60;;;1.60;;
40320;SDS011;26027;51.454;6.628;2022-08-21T03:14:28;1.65;;;1.65;;
40320;SDS011;26027;51.454;6.628;2022-08-21T03:16:54;1.63;;;1.63;;
40320;SDS011;26027;51.454;6.628;2022-08-21T03:19:20;1.40;;;1.40;;
40320;SDS011;26027;51.454;6.628;2022-08-21T03:21:46;1.60;;;1.60;;
40320;SDS011;26027;51.454;6.628;2022-08-21T03:24:12;1.40;;;1.40;;
40320;SDS011;26027;51.454;6.628;2022-08-21T03:26:38;1.65;;;1.65;;
40320;SDS011;26027;51.454;6.628;2022-08-21T03:29:04;1.45;;;1.45;;
40320;SDS011;26027;51.454;6.628;2022-08-21T03:31:32;1.40;;;1.40;;
40320;SDS011;26027;51.454;6.628;2022-08-21T03:33:58;1.60;;;1.60;;
40320;SDS011;26027;51.454;6.628;2022-08-21T03:36:24;1.40;;;1.40;;
40320;SDS011;26027;51.454;6.628;2022-08-21T03:38:50;1.35;;;1.35;;
40320;SDS011;26027;51.454;6.628;2022-08-21T03:41:16;1.50;;;1.40;;
40320;SDS011;26027;51.454;6.628;2022-08-21T03:43:42;1.20;;;1.20;;
40320;SDS011;26027;51.454;6.628;2022-08-21T03:46:08;1.45;;;1.45;;
40320;SDS011;26027;51.454;6.628;2022-08-21T03:48:36;1.30;;;1.30;;
40320;SDS011;26027;51.454;6.628;2022-08-21T03:51:02;1.40;;;1.40;;
40320;SDS011;26027;51.454;6.628;2022-08-21T03:53:28;1.50;;;1.50;;
40320;SDS011;26027;51.454;6.628;2022-08-21T03:55:55;1.50;;;1.50;;
40320;SDS011;26027;51.454;6.628;2022-08-21T03:58:22;1.38;;;1.38;;
40320;SDS011;26027;51.454;6.628;2022-08-21T04:00:50;1.40;;;1.40;;
40320;SDS011;26027;51.454;6.628;2022-08-21T04:03:17;1.50;;;1.50;;
40320;SDS011;26027;51.454;6.628;2022-08-21T04:05:43;1.60;;;1.60;;
40320;SDS011;26027;51.454;6.628;2022-08-21T04:08:10;1.65;;;1.63;;
40320;SDS011;26027;51.454;6.628;2022-08-21T04:10:37;1.50;;;1.50;;
40320;SDS011;26027;51.454;6.628;2022-08-21T04:13:04;1.50;;;1.50;;
40320;SDS011;26027;51.454;6.628;2022-08-21T04:15:30;1.55;;;1.55;;
40320;SDS011;26027;51.454;6.628;2022-08-21T04:17:56;1.50;;;1.50;;
40320;SDS011;26027;51.454;6.628;2022-08-21T04:20:22;1.30;;;1.30;;
40320;SDS011;26027;51.454;6.628;2022-08-21T04:22:50;1.40;;;1.40;;
40320;SDS011;26027;51.454;6.628;2022-08-21T04:25:17;1.45;;;1.45;;
40320;SDS011;26027;51.454;6.628;2022-08-21T04:27:43;1.33;;;1.33;;
40320;SDS011;26027;51.454;6.628;2022-08-21T04:30:10;1.40;;;1.40;;
40320;SDS011;26027;51.454;6.628;2022-08-21T04:32:38;1.30;;;1.30;;
40320;SDS011;26027;51.454;6.628;2022-08-21T04:35:06;1.50;;;1.50;;
40320;SDS011;26027;51.454;6.628;2022-08-21T04:37:33;1.50;;;1.50;;
40320;SDS011;26027;51.454;6.628;2022-08-21T04:39:59;1.38;;;1.38;;
40320;SDS011;26027;51.454;6.628;2022-08-21T04:42:26;1.30;;;1.30;;
40320;SDS011;26027;51.454;6.628;2022-08-21T04:44:52;1.48;;;1.48;;
40320;SDS011;26027;51.454;6.628;2022-08-21T04:47:19;1.35;;;1.35;;
40320;SDS011;26027;51.454;6.628;2022-08-21T04:49:45;1.52;;;1.52;;
40320;SDS011;26027;51.454;6.628;2022-08-21T04:52:11;1.60;;;1.60;;
40320;SDS011;26027;51.454;6.628;2022-08-21T04:54:39;1.52;;;1.52;;
40320;SDS011;26027;51.454;6.628;2022-08-21T04:57:06;1.40;;;1.40;;
40320;SDS011;26027;51.454;6.628;2022-08-21T04:59:41;1.30;;;1.30;;
40320;SDS011;26027;51.454;6.628;2022-08-21T05:02:08;1.35;;;1.35;;
40320;SDS011;26027;51.454;6.628;2022-08-21T05:04:35;1.27;;;1.27;;
40320;SDS011;26027;51.454;6.628;2022-08-21T05:07:03;1.45;;;1.45;;
40320;SDS011;26027;51.454;6.628;2022-08-21T05:09:30;1.15;;;1.15;;
40320;SDS011;26027;51.454;6.628;2022-08-21T05:11:57;1.48;;;1.48;;
40320;SDS011;26027;51.454;6.628;2022-08-21T05:14:23;1.42;;;1.42;;
40320;SDS011;26027;51.454;6.628;2022-08-21T05:16:51;1.35;;;1.35;;
40320;SDS011;26027;51.454;6.628;2022-08-21T05:19:17;1.48;;;1.48;;
40320;SDS011;26027;51.454;6.628;2022-08-21T05:21:43;1.17;;;1.17;;
40320;SDS011;26027;51.454;6.628;2022-08-21T05:24:10;1.38;;;1.38;;
40320;SDS011;26027;51.454;6.628;2022-08-21T05:26:36;1.30;;;1.30;;
40320;SDS011;26027;51.454;6.628;2022-08-21T05:29:03;1.30;;;1.30;;
40320;SDS011;26027;51.454;6.628;2022-08-21T05:31:30;1.48;;;1.48;;
40320;SDS011;26027;51.454;6.628;2022-08-21T05:33:56;1.27;;;1.27;;
40320;SDS011;26027;51.454;6.628;2022-08-21T05:36:22;1.60;;;1.60;;
40320;SDS011;26027;51.454;6.628;2022-08-21T05:38:48;1.40;;;1.40;;
40320;SDS011;26027;51.454;6.628;2022-08-21T05:41:14;1.40;;;1.40;;
40320;SDS011;26027;51.454;6.628;2022-08-21T05:43:40;1.25;;;1.25;;
40320;SDS011;26027;51.454;6.628;2022-08-21T05:46:06;1.30;;;1.30;;
40320;SDS011;26027;51.454;6.628;2022-08-21T05:48:33;1.38;;;1.38;;
40320;SDS011;26027;51.454;6.628;2022-08-21T05:51:07;1.30;;;1.30;;
40320;SDS011;26027;51.454;6.628;2022-08-21T05:53:34;1.20;;;1.20;;
40320;SDS011;26027;51.454;6.628;2022-08-21T05:56:00;1.25;;;1.25;;
40320;SDS011;26027;51.454;6.628;2022-08-21T05:58:28;1.20;;;1.20;;
40320;SDS011;26027;51.454;6.628;2022-08-21T06:00:55;1.30;;;1.30;;
40320;SDS011;26027;51.454;6.628;2022-08-21T06:03:25;1.48;;;1.48;;
40320;SDS011;26027;51.454;6.628;2022-08-21T06:05:51;1.50;;;1.50;;
40320;SDS011;26027;51.454;6.628;2022-08-21T06:08:17;1.30;;;1.30;;
40320;SDS011;26027;51.454;6.628;2022-08-21T06:10:44;1.50;;;1.50;;
40320;SDS011;26027;51.454;6.628;2022-08-21T06:13:10;1.40;;;1.40;;
40320;SDS011;26027;51.454;6.628;2022-08-21T06:15:36;1.33;;;1.33;;
40320;SDS011;26027;51.454;6.628;2022-08-21T06:18:03;1.52;;;1.52;;
40320;SDS011;26027;51.454;6.628;2022-08-21T06:20:29;1.45;;;1.45;;
40320;SDS011;26027;51.454;6.628;2022-08-21T06:22:56;1.30;;;1.30;;
40320;SDS011;26027;51.454;6.628;2022-08-21T06:25:22;1.40;;;1.40;;
40320;SDS011;26027;51.454;6.628;2022-08-21T06:27:49;1.10;;;1.10;;
40320;SDS011;26027;51.454;6.628;2022-08-21T06:30:15;1.27;;;1.27;;
40320;SDS011;26027;51.454;6.628;2022-08-21T06:32:41;1.30;;;1.30;;
40320;SDS011;26027;51.454;6.628;2022-08-21T06:35:07;1.30;;;1.30;;
40320;SDS011;26027;51.454;6.628;2022-08-21T06:37:34;1.30;;;1.30;;
40320;SDS011;26027;51.454;6.628;2022-08-21T06:40:00;1.27;;;1.27;;
40320;SDS011;26027;51.454;6.628;2022-08-21T06:42:26;1.40;;;1.40;;
40320;SDS011;26027;51.454;6.628;2022-08-21T06:44:53;1.30;;;1.30;;
40320;SDS011;26027;51.454;6.628;2022-08-21T06:47:19;1.33;;;1.33;;
40320;SDS011;26027;51.454;6.628;2022-08-21T06:49:45;1.20;;;1.20;;
40320;SDS011;26027;51.454;6.628;2022-08-21T06:52:11;1.33;;;1.33;;
40320;SDS011;26027;51.454;6.628;2022-08-21T06:54:38;1.50;;;1.50;;
40320;SDS011;26027;51.454;6.628;2022-08-21T06:57:04;1.20;;;1.20;;
40320;SDS011;26027;51.454;6.628;2022-08-21T06:59:30;1.30;;;1.30;;
40320;SDS011;26027;51.454;6.628;2022-08-21T07:01:57;1.50;;;1.50;;
40320;SDS011;26027;51.454;6.628;2022-08-21T07:04:23;1.30;;;1.30;;
40320;SDS011;26027;51.454;6.628;2022-08-21T07:06:49;1.20;;;1.20;;
40320;SDS011;26027;51.454;6.628;2022-08-21T07:09:15;1.30;;;1.30;;
40320;SDS011;26027;51.454;6.628;2022-08-21T07:11:42;1.30;;;1.30;;
40320;SDS011;26027;51.454;6.628;2022-08-21T07:14:08;1.33;;;1.33;;
40320;SDS011;26027;51.454;6.628;2022-08-21T07:16:34;1.30;;;1.30;;
40320;SDS011;26027;51.454;6.628;2022-08-21T07:19:00;1.50;;;1.50;;
40320;SDS011;26027;51.454;6.628;2022-08-21T07:21:26;1.30;;;1.30;;
40320;SDS011;26027;51.454;6.628;2022-08-21T07:23:52;1.30;;;1.30;;
40320;SDS011;26027;51.454;6.628;2022-08-21T07:26:20;1.35;;;1.35;;
40320;SDS011;26027;51.454;6.628;2022-08-21T07:28:50;1.20;;;1.20;;
40320;SDS011;26027;51.454;6.628;2022-08-21T07:31:16;1.30;;;1.30;;
40320;SDS011;26027;51.454;6.628;2022-08-21T07:33:42;1.33;;;1.33;;
40320;SDS011;26027;51.454;6.628;2022-08-21T07:36:09;1.30;;;1.30;;
40320;SDS011;26027;51.454;6.628;2022-08-21T07:38:35;1.33;;;1.33;;
40320;SDS011;26027;51.454;6.628;2022-08-21T07:41:02;1.35;;;1.35;;
40320;SDS011;26027;51.454;6.628;2022-08-21T07:43:28;1.20;;;1.20;;
40320;SDS011;26027;51.454;6.628;2022-08-21T07:45:54;1.40;;;1.40;;
40320;SDS011;26027;51.454;6.628;2022-08-21T07:48:21;1.20;;;1.20;;
40320;SDS011;26027;51.454;6.628;2022-08-21T07:50:47;1.30;;;1.30;;
40320;SDS011;26027;51.454;6.628;2022-08-21T07:53:14;1.20;;;1.20;;
40320;SDS011;26027;51.454;6.628;2022-08-21T07:55:40;1.30;;;1.30;;
40320;SDS011;26027;51.454;6.628;2022-08-21T07:58:06;1.35;;;1.35;;
40320;SDS011;26027;51.454;6.628;2022-08-21T08:00:32;1.20;;;1.20;;
40320;SDS011;26027;51.454;6.628;2022-08-21T08:02:59;1.35;;;1.35;;
40320;SDS011;26027;51.454;6.628;2022-08-21T08:05:26;1.10;;;1.10;;
40320;SDS011;26027;51.454;6.628;2022-08-21T08:07:52;1.23;;;1.23;;
40320;SDS011;26027;51.454;6.628;2022-08-21T08:10:19;1.42;;;1.42;;
40320;SDS011;26027;51.454;6.628;2022-08-21T08:12:45;1.20;;;1.20;;
40320;SDS011;26027;51.454;6.628;2022-08-21T08:15:12;1.20;;;1.20;;
40320;SDS011;26027;51.454;6.628;2022-08-21T08:17:39;1.20;;;1.20;;
40320;SDS011;26027;51.454;6.628;2022-08-21T08:20:06;1.30;;;1.30;;
40320;SDS011;26027;51.454;6.628;2022-08-21T08:22:33;1.33;;;1.33;;
40320;SDS011;26027;51.454;6.628;2022-08-21T08:24:59;1.10;;;1.10;;
40320;SDS011;26027;51.454;6.628;2022-08-21T08:27:26;1.20;;;1.20;;
40320;SDS011;26027;51.454;6.628;2022-08-21T08:29:52;1.25;;;1.25;;
40320;SDS011;26027;51.454;6.628;2022-08-21T08:32:18;1.10;;;1.10;;
40320;SDS011;26027;51.454;6.628;2022-08-21T08:34:45;1.10;;;1.10;;
40320;SDS011;26027;51.454;6.628;2022-08-21T08:37:14;1.10;;;1.10;;
40320;SDS011;26027;51.454;6.628;2022-08-21T08:39:40;1.02;;;1.02;;
40320;SDS011;26027;51.454;6.628;2022-08-21T08:42:08;1.02;;;1.02;;
40320;SDS011;26027;51.454;6.628;2022-08-21T08:44:38;1.13;;;1.13;;
40320;SDS011;26027;51.454;6.628;2022-08-21T08:47:04;1.10;;;1.10;;
40320;SDS011;26027;51.454;6.628;2022-08-21T08:49:37;1.20;;;1.20;;
40320;SDS011;26027;51.454;6.628;2022-08-21T08:52:16;1.15;;;1.15;;
40320;SDS011;26027;51.454;6.628;2022-08-21T08:54:48;1.20;;;1.20;;
40320;SDS011;26027;51.454;6.628;2022-08-21T08:57:17;1.20;;;1.20;;
40320;SDS011;26027;51.454;6.628;2022-08-21T08:59:44;1.20;;;1.20;;
40320;SDS011;26027;51.454;6.628;2022-08-21T09:02:15;1.38;;;1.38;;
40320;SDS011;26027;51.454;6.628;2022-08-21T09:04:41;1.30;;;1.30;;
40320;SDS011;26027;51.454;6.628;2022-08-21T09:09:48;1.10;;;1.10;;
40320;SDS011;26027;51.454;6.628;2022-08-21T09:14:50;1.05;;;1.05;;
40320;SDS011;26027;51.454;6.628;2022-08-21T09:25:20;1.13;;;1.13;;
40320;SDS011;26027;51.454;6.628;2022-08-21T09:27:47;1.20;;;1.20;;
40320;SDS011;26027;51.454;6.628;2022-08-21T09:30:13;1.20;;;1.20;;
40320;SDS011;26027;51.454;6.628;2022-08-21T09:32:39;1.30;;;1.30;;
40320;SDS011;26027;51.454;6.628;2022-08-21T09:35:13;1.17;;;1.17;;
40320;SDS011;26027;51.454;6.628;2022-08-21T09:40:18;1.30;;;1.30;;
40320;SDS011;26027;51.454;6.628;2022-08-21T09:42:53;1.20;;;1.20;;
40320;SDS011;26027;51.454;6.628;2022-08-21T09:45:19;1.27;;;1.27;;
40320;SDS011;26027;51.454;6.628;2022-08-21T09:47:45;1.15;;;1.15;;
40320;SDS011;26027;51.454;6.628;2022-08-21T09:50:16;1.10;;;1.10;;
40320;SDS011;26027;51.454;6.628;2022-08-21T09:52:44;1.20;;;1.20;;
40320;SDS011;26027;51.454;6.628;2022-08-21T09:55:15;1.20;;;1.20;;
40320;SDS011;26027;51.454;6.628;2022-08-21T09:58:01;1.30;;;1.30;;
40320;SDS011;26027;51.454;6.628;2022-08-21T10:00:29;1.05;;;1.05;;
40320;SDS011;26027;51.454;6.628;2022-08-21T10:05:58;1.13;;;1.13;;
40320;SDS011;26027;51.454;6.628;2022-08-21T10:08:26;1.00;;;1.00;;
40320;SDS011;26027;51.454;6.628;2022-08-21T10:10:56;1.40;;;1.40;;
40320;SDS011;26027;51.454;6.628;2022-08-21T10:18:56;1.05;;;1.05;;
40320;SDS011;26027;51.454;6.628;2022-08-21T10:21:27;1.20;;;1.20;;
40320;SDS011;26027;51.454;6.628;2022-08-21T10:24:00;1.20;;;1.20;;
40320;SDS011;26027;51.454;6.628;2022-08-21T10:34:17;1.10;;;1.10;;
40320;SDS011;26027;51.454;6.628;2022-08-21T10:39:21;1.40;;;1.30;;
40320;SDS011;26027;51.454;6.628;2022-08-21T10:44:35;1.30;;;1.30;;
40320;SDS011;26027;51.454;6.628;2022-08-21T10:50:10;1.25;;;1.25;;
40320;SDS011;26027;51.454;6.628;2022-08-21T10:55:09;1.10;;;1.10;;
40320;SDS011;26027;51.454;6.628;2022-08-21T11:00:23;1.10;;;1.10;;
40320;SDS011;26027;51.454;6.628;2022-08-21T11:05:20;2.00;;;1.30;;
40320;SDS011;26027;51.454;6.628;2022-08-21T11:07:54;1.40;;;1.30;;
40320;SDS011;26027;51.454;6.628;2022-08-21T11:10:22;1.25;;;1.25;;
40320;SDS011;26027;51.454;6.628;2022-08-21T11:12:58;1.20;;;1.10;;
40320;SDS011;26027;51.454;6.628;2022-08-21T11:20:43;1.20;;;1.10;;
40320;SDS011;26027;51.454;6.628;2022-08-21T11:25:41;1.10;;;1.00;;
40320;SDS011;26027;51.454;6.628;2022-08-21T11:28:15;1.30;;;1.30;;
40320;SDS011;26027;51.454;6.628;2022-08-21T11:30:48;1.42;;;1.33;;
40320;SDS011;26027;51.454;6.628;2022-08-21T11:36:07;1.27;;;1.27;;
40320;SDS011;26027;51.454;6.628;2022-08-21T11:38:39;1.10;;;1.10;;
40320;SDS011;26027;51.454;6.628;2022-08-21T11:46:28;1.10;;;1.10;;
40320;SDS011;26027;51.454;6.628;2022-08-21T11:48:59;1.33;;;1.25;;
40320;SDS011;26027;51.454;6.628;2022-08-21T11:51:47;1.10;;;1.10;;
40320;SDS011;26027;51.454;6.628;2022-08-21T11:54:58;1.17;;;1.17;;
40320;SDS011;26027;51.454;6.628;2022-08-21T11:59:53;1.02;;;1.02;;
40320;SDS011;26027;51.454;6.628;2022-08-21T12:02:18;1.20;;;1.20;;
40320;SDS011;26027;51.454;6.628;2022-08-21T12:04:46;1.20;;;1.20;;
40320;SDS011;26027;51.454;6.628;2022-08-21T12:07:17;1.17;;;1.17;;
40320;SDS011;26027;51.454;6.628;2022-08-21T12:09:54;1.30;;;1.30;;
40320;SDS011;26027;51.454;6.628;2022-08-21T12:14:51;1.10;;;1.10;;
40320;SDS011;26027;51.454;6.628;2022-08-21T12:17:19;1.10;;;1.10;;
40320;SDS011;26027;51.454;6.628;2022-08-21T12:19:56;0.95;;;0.95;;
40320;SDS011;26027;51.454;6.628;2022-08-21T12:22:22;1.00;;;1.00;;
40320;SDS011;26027;51.454;6.628;2022-08-21T12:25:06;1.00;;;1.00;;
40320;SDS011;26027;51.454;6.628;2022-08-21T12:30:33;1.10;;;1.10;;
40320;SDS011;26027;51.454;6.628;2022-08-21T12:33:00;1.20;;;1.20;;
40320;SDS011;26027;51.454;6.628;2022-08-21T12:35:37;1.00;;;1.00;;
40320;SDS011;26027;51.454;6.628;2022-08-21T12:38:09;1.10;;;1.10;;
40320;SDS011;26027;51.454;6.628;2022-08-21T12:40:42;1.02;;;1.02;;
40320;SDS011;26027;51.454;6.628;2022-08-21T12:43:13;1.35;;;1.27;;
40320;SDS011;26027;51.454;6.628;2022-08-21T12:45:41;1.00;;;1.00;;
40320;SDS011;26027;51.454;6.628;2022-08-21T12:48:44;0.88;;;0.88;;
40320;SDS011;26027;51.454;6.628;2022-08-21T12:51:13;1.17;;;1.17;;
40320;SDS011;26027;51.454;6.628;2022-08-21T12:56:17;1.10;;;1.10;;
40320;SDS011;26027;51.454;6.628;2022-08-21T12:58:50;1.20;;;1.20;;
40320;SDS011;26027;51.454;6.628;2022-08-21T13:01:38;1.00;;;1.00;;
40320;SDS011;26027;51.454;6.628;2022-08-21T13:04:07;1.10;;;1.10;;
40320;SDS011;26027;51.454;6.628;2022-08-21T13:06:38;1.13;;;1.13;;
40320;SDS011;26027;51.454;6.628;2022-08-21T13:09:05;1.20;;;1.20;;
40320;SDS011;26027;51.454;6.628;2022-08-21T13:11:32;1.05;;;1.05;;
40320;SDS011;26027;51.454;6.628;2022-08-21T13:13:59;1.17;;;1.17;;
40320;SDS011;26027;51.454;6.628;2022-08-21T13:16:27;0.90;;;0.90;;
40320;SDS011;26027;51.454;6.628;2022-08-21T13:18:55;0.98;;;0.98;;
40320;SDS011;26027;51.454;6.628;2022-08-21T13:21:26;1.00;;;1.00;;
40320;SDS011;26027;51.454;6.628;2022-08-21T13:23:52;1.10;;;1.10;;
40320;SDS011;26027;51.454;6.628;2022-08-21T13:26:20;1.17;;;1.17;;
40320;SDS011;26027;51.454;6.628;2022-08-21T13:28:47;0.95;;;0.95;;
40320;SDS011;26027;51.454;6.628;2022-08-21T13:31:18;0.90;;;0.90;;
40320;SDS011;26027;51.454;6.628;2022-08-21T13:33:46;0.98;;;0.98;;
40320;SDS011;26027;51.454;6.628;2022-08-21T13:36:15;1.00;;;1.00;;
40320;SDS011;26027;51.454;6.628;2022-08-21T13:38:43;1.10;;;1.10;;
40320;SDS011;26027;51.454;6.628;2022-08-21T13:43:46;0.93;;;0.93;;
40320;SDS011;26027;51.454;6.628;2022-08-21T13:46:14;1.20;;;1.20;;
40320;SDS011;26027;51.454;6.628;2022-08-21T13:48:40;1.00;;;1.00;;
40320;SDS011;26027;51.454;6.628;2022-08-21T13:51:07;1.00;;;1.00;;
40320;SDS011;26027;51.454;6.628;2022-08-21T13:53:55;0.90;;;0.90;;
40320;SDS011;26027;51.454;6.628;2022-08-21T13:56:22;1.00;;;1.00;;
40320;SDS011;26027;51.454;6.628;2022-08-21T13:58:49;1.15;;;1.15;;
40320;SDS011;26027;51.454;6.628;2022-08-21T14:01:19;0.98;;;0.98;;
40320;SDS011;26027;51.454;6.628;2022-08-21T14:03:46;1.08;;;1.08;;
40320;SDS011;26027;51.454;6.628;2022-08-21T14:06:24;1.00;;;1.00;;
40320;SDS011;26027;51.454;6.628;2022-08-21T14:08:52;1.05;;;1.05;;
40320;SDS011;26027;51.454;6.628;2022-08-21T14:11:19;1.02;;;1.02;;
40320;SDS011;26027;51.454;6.628;2022-08-21T14:13:49;1.00;;;1.00;;
40320;SDS011;26027;51.454;6.628;2022-08-21T14:16:20;1.00;;;1.00;;
40320;SDS011;26027;51.454;6.628;2022-08-21T14:18:48;1.05;;;1.05;;
40320;SDS011;26027;51.454;6.628;2022-08-21T14:21:23;0.90;;;0.90;;
40320;SDS011;26027;51.454;6.628;2022-08-21T14:24:07;0.80;;;0.80;;
40320;SDS011;26027;51.454;6.628;2022-08-21T14:26:37;1.00;;;1.00;;
40320;SDS011;26027;51.454;6.628;2022-08-21T14:29:09;1.00;;;1.00;;
40320;SDS011;26027;51.454;6.628;2022-08-21T14:31:35;1.00;;;1.00;;
40320;SDS011;26027;51.454;6.628;2022-08-21T14:34:02;1.05;;;1.05;;
40320;SDS011;26027;51.454;6.628;2022-08-21T14:36:28;0.90;;;0.90;;
40320;SDS011;26027;51.454;6.628;2022-08-21T14:38:54;1.10;;;1.10;;
40320;SDS011;26027;51.454;6.628;2022-08-21T14:41:23;1.00;;;1.00;;
40320;SDS011;26027;51.454;6.628;2022-08-21T14:43:51;1.00;;;1.00;;
40320;SDS011;26027;51.454;6.628;2022-08-21T14:46:20;1.20;;;1.20;;
40320;SDS011;26027;51.454;6.628;2022-08-21T14:48:46;1.02;;;1.02;;
40320;SDS011;26027;51.454;6.628;2022-08-21T14:51:14;0.88;;;0.88;;
40320;SDS011;26027;51.454;6.628;2022-08-21T14:53:40;1.10;;;1.10;;
40320;SDS011;26027;51.454;6.628;2022-08-21T14:56:07;0.80;;;0.80;;
40320;SDS011;26027;51.454;6.628;2022-08-21T14:58:35;0.98;;;0.98;;
40320;SDS011;26027;51.454;6.628;2022-08-21T15:01:01;1.10;;;1.10;;
40320;SDS011;26027;51.454;6.628;2022-08-21T15:03:29;0.93;;;0.93;;
40320;SDS011;26027;51.454;6.628;2022-08-21T15:05:55;0.80;;;0.80;;
40320;SDS011;26027;51.454;6.628;2022-08-21T15:08:21;1.10;;;1.10;;
40320;SDS011;26027;51.454;6.628;2022-08-21T15:10:47;0.95;;;0.95;;
40320;SDS011;26027;51.454;6.628;2022-08-21T15:13:13;1.10;;;1.10;;
40320;SDS011;26027;51.454;6.628;2022-08-21T15:15:41;1.00;;;1.00;;
40320;SDS011;26027;51.454;6.628;2022-08-21T15:18:07;0.98;;;0.98;;
40320;SDS011;26027;51.454;6.628;2022-08-21T15:20:34;1.15;;;1.15;;
40320;SDS011;26027;51.454;6.628;2022-08-21T15:23:00;1.20;;;1.20;;
40320;SDS011;26027;51.454;6.628;2022-08-21T15:25:26;0.90;;;0.90;;
40320;SDS011;26027;51.454;6.628;2022-08-21T15:27:52;0.98;;;0.98;;
40320;SDS011;26027;51.454;6.628;2022-08-21T15:30:18;0.90;;;0.90;;
40320;SDS011;26027;51.454;6.628;2022-08-21T15:32:44;1.00;;;1.00;;
40320;SDS011;26027;51.454;6.628;2022-08-21T15:35:11;0.88;;;0.88;;
40320;SDS011;26027;51.454;6.628;2022-08-21T15:37:37;1.10;;;1.10;;
40320;SDS011;26027;51.454;6.628;2022-08-21T15:40:04;0.95;;;0.95;;
40320;SDS011;26027;51.454;6.628;2022-08-21T15:42:32;0.95;;;0.95;;
40320;SDS011;26027;51.454;6.628;2022-08-21T15:44:58;0.93;;;0.93;;
40320;SDS011;26027;51.454;6.628;2022-08-21T15:47:34;1.08;;;1.08;;
40320;SDS011;26027;51.454;6.628;2022-08-21T15:50:02;0.90;;;0.90;;
40320;SDS011;26027;51.454;6.628;2022-08-21T15:52:28;0.90;;;0.90;;
40320;SDS011;26027;51.454;6.628;2022-08-21T15:54:54;0.90;;;0.90;;
40320;SDS011;26027;51.454;6.628;2022-08-21T15:57:22;0.90;;;0.90;;
40320;SDS011;26027;51.454;6.628;2022-08-21T15:59:56;1.00;;;1.00;;
40320;SDS011;26027;51.454;6.628;2022-08-21T16:02:23;0.90;;;0.90;;
40320;SDS011;26027;51.454;6.628;2022-08-21T16:04:50;1.10;;;1.10;;
40320;SDS011;26027;51.454;6.628;2022-08-21T16:07:16;1.00;;;1.00;;
40320;SDS011;26027;51.454;6.628;2022-08-21T16:09:42;0.88;;;0.88;;
40320;SDS011;26027;51.454;6.628;2022-08-21T16:12:09;0.90;;;0.90;;